sensor_id;sensor_type;location;lat;lon;timestamp;temperature;humidity
17986;DHT22;9118;48.122;11.546;2024-03-06T00:02:26;6.50;99.90
17986;DHT22;9118;48.122;11.546;2024-03-06T00:04:53;6.70;99.90
17986;DHT22;9118;48.122;11.546;2024-03-06T00:07:20;6.50;99.90
17986;DHT22;9118;48.122;11.546;2024-03-06T00:09:46;6.50;99.90
17986;DHT22;9118;48.122;11.546;2024-03-06T00:12:13;6.70;99.90
17986;DHT22;9118;48.122;11.546;2024-03-06T00:14:40;6.70;99.90
17986;DHT22;9118;48.122;11.546;2024-03-06T00:17:07;6.90;99.90
17986;DHT22;9118;48.122;11.546;2024-03-06T00:19:36;6.70;99.90
17986;DHT22;9118;48.122;11.546;2024-03-06T00:22:03;6.70;99.90
17986;DHT22;9118;48.122;11.546;2024-03-06T00:24:30;6.80;99.90
17986;DHT22;9118;48.122;11.546;2024-03-06T00:26:57;6.50;99.90
17986;DHT22;9118;48.122;11.546;2024-03-06T00:29:24;6.30;99.90
17986;DHT22;9118;48.122;11.546;2024-03-06T00:31:51;6.20;99.90
17986;DHT22;9118;48.122;11.546;2024-03-06T00:34:19;6.30;99.90
17986;DHT22;9118;48.122;11.546;2024-03-06T00:36:47;6.20;99.90
17986;DHT22;9118;48.122;11.546;2024-03-06T00:39:15;6.20;99.90
17986;DHT22;9118;48.122;11.546;2024-03-06T00:41:42;6.20;99.90
17986;DHT22;9118;48.122;11.546;2024-03-06T00:44:08;6.20;99.90
17986;DHT22;9118;48.122;11.546;2024-03-06T00:46:35;6.10;99.90
17986;DHT22;9118;48.122;11.546;2024-03-06T00:49:02;6.10;99.90
17986;DHT22;9118;48.122;11.546;2024-03-06T00:51:32;6.20;99.90
17986;DHT22;9118;48.122;11.546;2024-03-06T00:54:03;6.10;99.90
17986;DHT22;9118;48.122;11.546;2024-03-06T00:56:30;6.20;99.90
17986;DHT22;9118;48.122;11.546;2024-03-06T00:58:57;6.10;99.90
17986;DHT22;9118;48.122;11.546;2024-03-06T01:01:24;6.20;99.90
17986;DHT22;9118;48.122;11.546;2024-03-06T01:03:52;6.20;99.90
17986;DHT22;9118;48.122;11.546;2024-03-06T01:06:20;6.40;99.90
17986;DHT22;9118;48.122;11.546;2024-03-06T01:08:47;6.10;99.90
17986;DHT22;9118;48.122;11.546;2024-03-06T01:11:15;6.50;99.90
17986;DHT22;9118;48.122;11.546;2024-03-06T01:13:42;6.40;99.90
17986;DHT22;9118;48.122;11.546;2024-03-06T01:16:09;6.60;99.90
17986;DHT22;9118;48.122;11.546;2024-03-06T01:18:36;6.70;99.90
17986;DHT22;9118;48.122;11.546;2024-03-06T01:21:02;6.40;99.90
17986;DHT22;9118;48.122;11.546;2024-03-06T01:23:30;6.20;99.90
17986;DHT22;9118;48.122;11.546;2024-03-06T01:25:57;6.20;99.90
17986;DHT22;9118;48.122;11.546;2024-03-06T01:28:25;6.20;99.90
17986;DHT22;9118;48.122;11.546;2024-03-06T01:30:52;6.10;99.90
17986;DHT22;9118;48.122;11.546;2024-03-06T01:33:19;6.00;99.90
17986;DHT22;9118;48.122;11.546;2024-03-06T01:35:47;6.10;99.90
17986;DHT22;9118;48.122;11.546;2024-03-06T01:38:14;6.10;99.90
17986;DHT22;9118;48.122;11.546;2024-03-06T01:40:42;6.10;99.90
17986;DHT22;9118;48.122;11.546;2024-03-06T01:43:17;6.10;99.90
17986;DHT22;9118;48.122;11.546;2024-03-06T01:45:45;6.20;99.90
17986;DHT22;9118;48.122;11.546;2024-03-06T01:48:12;6.40;99.90
17986;DHT22;9118;48.122;11.546;2024-03-06T01:50:39;6.40;99.90
17986;DHT22;9118;48.122;11.546;2024-03-06T01:53:07;6.40;99.90
17986;DHT22;9118;48.122;11.546;2024-03-06T01:55:34;6.50;99.90
17986;DHT22;9118;48.122;11.546;2024-03-06T01:58:01;6.60;99.90
17986;DHT22;9118;48.122;11.546;2024-03-06T02:00:29;6.50;99.90
17986;DHT22;9118;48.122;11.546;2024-03-06T02:02:57;6.70;99.90
17986;DHT22;9118;48.122;11.546;2024-03-06T02:05:24;6.50;99.90
17986;DHT22;9118;48.122;11.546;2024-03-06T02:07:51;6.60;99.90
17986;DHT22;9118;48.122;11.546;2024-03-06T02:10:20;6.70;99.90
17986;DHT22;9118;48.122;11.546;2024-03-06T02:12:47;6.80;99.90
17986;DHT22;9118;48.122;11.546;2024-03-06T02:15:15;6.90;99.90
17986;DHT22;9118;48.122;11.546;2024-03-06T02:17:42;7.00;99.90
17986;DHT22;9118;48.122;11.546;2024-03-06T02:20:10;7.20;99.90
17986;DHT22;9118;48.122;11.546;2024-03-06T02:22:41;7.20;99.90
17986;DHT22;9118;48.122;11.546;2024-03-06T02:25:07;7.20;99.90
17986;DHT22;9118;48.122;11.546;2024-03-06T02:27:34;7.00;99.90
17986;DHT22;9118;48.122;11.546;2024-03-06T02:30:01;7.10;99.90
17986;DHT22;9118;48.122;11.546;2024-03-06T02:32:29;7.10;99.90
17986;DHT22;9118;48.122;11.546;2024-03-06T02:34:56;7.10;99.90
17986;DHT22;9118;48.122;11.546;2024-03-06T02:37:22;7.10;99.90
17986;DHT22;9118;48.122;11.546;2024-03-06T02:39:51;7.10;99.90
17986;DHT22;9118;48.122;11.546;2024-03-06T02:42:18;7.20;99.90
17986;DHT22;9118;48.122;11.546;2024-03-06T02:44:45;7.30;99.90
17986;DHT22;9118;48.122;11.546;2024-03-06T02:47:12;7.20;99.90
17986;DHT22;9118;48.122;11.546;2024-03-06T02:49:39;7.30;99.90
17986;DHT22;9118;48.122;11.546;2024-03-06T02:52:05;7.30;99.90
17986;DHT22;9118;48.122;11.546;2024-03-06T02:54:32;7.30;99.90
17986;DHT22;9118;48.122;11.546;2024-03-06T02:57:01;7.30;99.90
17986;DHT22;9118;48.122;11.546;2024-03-06T02:59:28;7.30;99.90
17986;DHT22;9118;48.122;11.546;2024-03-06T03:01:55;7.20;99.90
17986;DHT22;9118;48.122;11.546;2024-03-06T03:04:22;7.40;99.90
17986;DHT22;9118;48.122;11.546;2024-03-06T03:06:49;7.50;99.90
17986;DHT22;9118;48.122;11.546;2024-03-06T03:09:16;7.10;99.90
17986;DHT22;9118;48.122;11.546;2024-03-06T03:11:43;6.80;99.90
17986;DHT22;9118;48.122;11.546;2024-03-06T03:14:11;6.80;99.90
17986;DHT22;9118;48.122;11.546;2024-03-06T03:16:38;6.70;99.90
17986;DHT22;9118;48.122;11.546;2024-03-06T03:19:05;6.50;99.90
17986;DHT22;9118;48.122;11.546;2024-03-06T03:21:33;6.40;99.90
17986;DHT22;9118;48.122;11.546;2024-03-06T03:24:00;6.30;99.90
17986;DHT22;9118;48.122;11.546;2024-03-06T03:26:27;6.80;99.90
17986;DHT22;9118;48.122;11.546;2024-03-06T03:28:54;6.20;99.90
17986;DHT22;9118;48.122;11.546;2024-03-06T03:31:22;6.20;99.90
17986;DHT22;9118;48.122;11.546;2024-03-06T03:33:49;6.20;99.90
17986;DHT22;9118;48.122;11.546;2024-03-06T03:36:16;6.40;99.90
17986;DHT22;9118;48.122;11.546;2024-03-06T03:38:43;6.10;99.90
17986;DHT22;9118;48.122;11.546;2024-03-06T03:41:10;6.10;99.90
17986;DHT22;9118;48.122;11.546;2024-03-06T03:43:38;6.10;99.90
17986;DHT22;9118;48.122;11.546;2024-03-06T03:46:04;6.00;99.90
17986;DHT22;9118;48.122;11.546;2024-03-06T03:48:33;6.20;99.90
17986;DHT22;9118;48.122;11.546;2024-03-06T03:51:01;6.20;99.90
17986;DHT22;9118;48.122;11.546;2024-03-06T03:53:28;6.30;99.90
17986;DHT22;9118;48.122;11.546;2024-03-06T03:55:55;6.40;99.90
17986;DHT22;9118;48.122;11.546;2024-03-06T03:58:22;6.50;99.90
17986;DHT22;9118;48.122;11.546;2024-03-06T04:00:49;6.50;99.90
17986;DHT22;9118;48.122;11.546;2024-03-06T04:03:18;6.30;99.90
17986;DHT22;9118;48.122;11.546;2024-03-06T04:05:46;6.30;99.90
17986;DHT22;9118;48.122;11.546;2024-03-06T04:08:13;6.40;99.90
17986;DHT22;9118;48.122;11.546;2024-03-06T04:10:41;6.10;99.90
17986;DHT22;9118;48.122;11.546;2024-03-06T04:13:08;6.20;99.90
17986;DHT22;9118;48.122;11.546;2024-03-06T04:15:35;6.40;99.90
17986;DHT22;9118;48.122;11.546;2024-03-06T04:18:01;6.40;99.90
17986;DHT22;9118;48.122;11.546;2024-03-06T04:20:28;6.40;99.90
17986;DHT22;9118;48.122;11.546;2024-03-06T04:22:56;6.40;99.90
17986;DHT22;9118;48.122;11.546;2024-03-06T04:25:23;6.30;99.90
17986;DHT22;9118;48.122;11.546;2024-03-06T04:27:50;6.30;99.90
17986;DHT22;9118;48.122;11.546;2024-03-06T04:30:17;6.40;99.90
17986;DHT22;9118;48.122;11.546;2024-03-06T04:32:44;6.40;99.90
17986;DHT22;9118;48.122;11.546;2024-03-06T04:35:11;6.30;99.90
17986;DHT22;9118;48.122;11.546;2024-03-06T04:37:37;6.30;99.90
17986;DHT22;9118;48.122;11.546;2024-03-06T04:40:07;6.40;99.90
17986;DHT22;9118;48.122;11.546;2024-03-06T04:42:34;6.30;99.90
17986;DHT22;9118;48.122;11.546;2024-03-06T04:45:02;6.40;99.90
17986;DHT22;9118;48.122;11.546;2024-03-06T04:47:29;6.40;99.90
17986;DHT22;9118;48.122;11.546;2024-03-06T04:49:56;6.30;99.90
17986;DHT22;9118;48.122;11.546;2024-03-06T04:52:24;6.30;99.90
17986;DHT22;9118;48.122;11.546;2024-03-06T04:54:51;6.50;99.90
17986;DHT22;9118;48.122;11.546;2024-03-06T04:57:19;6.30;99.90
17986;DHT22;9118;48.122;11.546;2024-03-06T04:59:46;6.30;99.90
17986;DHT22;9118;48.122;11.546;2024-03-06T05:02:13;6.30;99.90
17986;DHT22;9118;48.122;11.546;2024-03-06T05:04:40;5.70;99.90
17986;DHT22;9118;48.122;11.546;2024-03-06T05:07:06;6.20;99.90
17986;DHT22;9118;48.122;11.546;2024-03-06T05:09:33;6.20;99.90
17986;DHT22;9118;48.122;11.546;2024-03-06T05:12:02;6.00;99.90
17986;DHT22;9118;48.122;11.546;2024-03-06T05:14:32;6.10;99.90
17986;DHT22;9118;48.122;11.546;2024-03-06T05:16:59;5.90;99.90
17986;DHT22;9118;48.122;11.546;2024-03-06T05:19:28;5.90;99.90
17986;DHT22;9118;48.122;11.546;2024-03-06T05:21:57;5.90;99.90
17986;DHT22;9118;48.122;11.546;2024-03-06T05:24:24;5.80;99.90
17986;DHT22;9118;48.122;11.546;2024-03-06T05:26:51;5.90;99.90
17986;DHT22;9118;48.122;11.546;2024-03-06T05:29:18;5.90;99.90
17986;DHT22;9118;48.122;11.546;2024-03-06T05:31:46;6.00;99.90
17986;DHT22;9118;48.122;11.546;2024-03-06T05:34:13;6.20;99.90
17986;DHT22;9118;48.122;11.546;2024-03-06T05:36:39;5.90;99.90
17986;DHT22;9118;48.122;11.546;2024-03-06T05:39:06;5.90;99.90
17986;DHT22;9118;48.122;11.546;2024-03-06T05:41:37;5.90;99.90
17986;DHT22;9118;48.122;11.546;2024-03-06T05:44:04;5.50;99.90
17986;DHT22;9118;48.122;11.546;2024-03-06T05:46:31;5.50;99.90
17986;DHT22;9118;48.122;11.546;2024-03-06T05:48:59;5.60;99.90
17986;DHT22;9118;48.122;11.546;2024-03-06T05:51:26;5.80;99.90
17986;DHT22;9118;48.122;11.546;2024-03-06T05:53:54;5.90;99.90
17986;DHT22;9118;48.122;11.546;2024-03-06T05:56:21;5.80;99.90
17986;DHT22;9118;48.122;11.546;2024-03-06T05:58:47;5.80;99.90
17986;DHT22;9118;48.122;11.546;2024-03-06T06:01:14;5.70;99.90
17986;DHT22;9118;48.122;11.546;2024-03-06T06:03:44;5.60;99.90
17986;DHT22;9118;48.122;11.546;2024-03-06T06:06:14;5.70;99.90
17986;DHT22;9118;48.122;11.546;2024-03-06T06:08:40;5.80;99.90
17986;DHT22;9118;48.122;11.546;2024-03-06T06:11:09;5.90;99.90
17986;DHT22;9118;48.122;11.546;2024-03-06T06:13:36;5.80;99.90
17986;DHT22;9118;48.122;11.546;2024-03-06T06:16:03;6.00;99.90
17986;DHT22;9118;48.122;11.546;2024-03-06T06:18:30;6.00;99.90
17986;DHT22;9118;48.122;11.546;2024-03-06T06:20:58;5.70;99.90
17986;DHT22;9118;48.122;11.546;2024-03-06T06:23:27;5.40;99.90
17986;DHT22;9118;48.122;11.546;2024-03-06T06:25:54;5.20;99.90
17986;DHT22;9118;48.122;11.546;2024-03-06T06:28:21;5.70;99.90
17986;DHT22;9118;48.122;11.546;2024-03-06T06:30:49;5.50;99.90
17986;DHT22;9118;48.122;11.546;2024-03-06T06:33:17;5.80;99.90
17986;DHT22;9118;48.122;11.546;2024-03-06T06:35:44;5.80;99.90
17986;DHT22;9118;48.122;11.546;2024-03-06T06:38:11;5.60;99.90
17986;DHT22;9118;48.122;11.546;2024-03-06T06:40:39;5.70;99.90
17986;DHT22;9118;48.122;11.546;2024-03-06T06:43:07;5.70;99.90
17986;DHT22;9118;48.122;11.546;2024-03-06T06:45:34;5.80;99.90
17986;DHT22;9118;48.122;11.546;2024-03-06T06:48:03;5.80;99.90
17986;DHT22;9118;48.122;11.546;2024-03-06T06:50:30;5.90;99.90
17986;DHT22;9118;48.122;11.546;2024-03-06T06:52:58;6.10;99.90
17986;DHT22;9118;48.122;11.546;2024-03-06T06:55:26;6.10;99.90
17986;DHT22;9118;48.122;11.546;2024-03-06T06:57:54;6.60;99.90
17986;DHT22;9118;48.122;11.546;2024-03-06T07:00:21;6.20;99.90
17986;DHT22;9118;48.122;11.546;2024-03-06T07:02:48;6.20;99.90
17986;DHT22;9118;48.122;11.546;2024-03-06T07:05:16;6.10;99.90
17986;DHT22;9118;48.122;11.546;2024-03-06T07:07:43;5.80;99.90
17986;DHT22;9118;48.122;11.546;2024-03-06T07:10:10;6.00;99.90
17986;DHT22;9118;48.122;11.546;2024-03-06T07:12:37;5.80;99.90
17986;DHT22;9118;48.122;11.546;2024-03-06T07:15:06;5.60;99.90
17986;DHT22;9118;48.122;11.546;2024-03-06T07:17:33;5.90;99.90
17986;DHT22;9118;48.122;11.546;2024-03-06T07:20:00;5.90;99.90
17986;DHT22;9118;48.122;11.546;2024-03-06T07:22:27;6.00;99.90
17986;DHT22;9118;48.122;11.546;2024-03-06T07:24:54;6.10;99.90
17986;DHT22;9118;48.122;11.546;2024-03-06T07:27:20;6.20;99.90
17986;DHT22;9118;48.122;11.546;2024-03-06T07:29:47;6.20;99.90
17986;DHT22;9118;48.122;11.546;2024-03-06T07:32:16;6.10;99.90
17986;DHT22;9118;48.122;11.546;2024-03-06T07:34:43;6.00;99.90
17986;DHT22;9118;48.122;11.546;2024-03-06T07:37:10;6.10;99.90
17986;DHT22;9118;48.122;11.546;2024-03-06T07:39:37;5.90;99.90
17986;DHT22;9118;48.122;11.546;2024-03-06T07:42:04;5.80;99.90
17986;DHT22;9118;48.122;11.546;2024-03-06T07:44:31;6.00;99.90
17986;DHT22;9118;48.122;11.546;2024-03-06T07:46:58;6.00;99.90
17986;DHT22;9118;48.122;11.546;2024-03-06T07:49:26;6.00;99.90
17986;DHT22;9118;48.122;11.546;2024-03-06T07:51:54;6.30;99.90
17986;DHT22;9118;48.122;11.546;2024-03-06T07:54:23;6.30;99.90
17986;DHT22;9118;48.122;11.546;2024-03-06T07:56:49;6.30;99.90
17986;DHT22;9118;48.122;11.546;2024-03-06T07:59:18;5.90;99.90
17986;DHT22;9118;48.122;11.546;2024-03-06T08:01:45;6.10;99.90
17986;DHT22;9118;48.122;11.546;2024-03-06T08:04:12;5.90;99.90
17986;DHT22;9118;48.122;11.546;2024-03-06T08:06:40;6.00;99.90
17986;DHT22;9118;48.122;11.546;2024-03-06T08:09:08;6.20;99.90
17986;DHT22;9118;48.122;11.546;2024-03-06T08:11:35;6.30;99.90
17986;DHT22;9118;48.122;11.546;2024-03-06T08:14:02;6.40;99.90
17986;DHT22;9118;48.122;11.546;2024-03-06T08:16:29;6.40;99.90
17986;DHT22;9118;48.122;11.546;2024-03-06T08:18:55;5.90;99.90
17986;DHT22;9118;48.122;11.546;2024-03-06T08:21:24;6.00;99.90
17986;DHT22;9118;48.122;11.546;2024-03-06T08:23:53;6.10;99.90
17986;DHT22;9118;48.122;11.546;2024-03-06T08:26:20;6.00;99.90
17986;DHT22;9118;48.122;11.546;2024-03-06T08:28:46;6.10;99.90
17986;DHT22;9118;48.122;11.546;2024-03-06T08:31:14;6.30;99.90
17986;DHT22;9118;48.122;11.546;2024-03-06T08:33:41;6.40;99.90
17986;DHT22;9118;48.122;11.546;2024-03-06T08:36:09;6.30;99.90
17986;DHT22;9118;48.122;11.546;2024-03-06T08:38:36;6.30;99.90
17986;DHT22;9118;48.122;11.546;2024-03-06T08:41:05;6.40;99.90
17986;DHT22;9118;48.122;11.546;2024-03-06T08:43:32;6.50;99.90
17986;DHT22;9118;48.122;11.546;2024-03-06T08:45:58;6.50;99.90
17986;DHT22;9118;48.122;11.546;2024-03-06T08:48:25;6.50;99.90
17986;DHT22;9118;48.122;11.546;2024-03-06T08:50:52;6.50;99.90
17986;DHT22;9118;48.122;11.546;2024-03-06T08:53:19;6.50;99.90
17986;DHT22;9118;48.122;11.546;2024-03-06T08:55:46;6.50;99.90
17986;DHT22;9118;48.122;11.546;2024-03-06T08:58:15;6.60;99.90
17986;DHT22;9118;48.122;11.546;2024-03-06T09:00:41;6.50;99.90
17986;DHT22;9118;48.122;11.546;2024-03-06T09:03:08;6.40;99.90
17986;DHT22;9118;48.122;11.546;2024-03-06T09:05:35;6.20;99.90
17986;DHT22;9118;48.122;11.546;2024-03-06T09:08:02;6.20;99.90
17986;DHT22;9118;48.122;11.546;2024-03-06T09:10:29;6.30;99.90
17986;DHT22;9118;48.122;11.546;2024-03-06T09:12:56;6.40;99.90
17986;DHT22;9118;48.122;11.546;2024-03-06T09:15:24;6.30;99.90
17986;DHT22;9118;48.122;11.546;2024-03-06T09:17:51;6.40;99.90
17986;DHT22;9118;48.122;11.546;2024-03-06T09:20:18;6.30;99.90
17986;DHT22;9118;48.122;11.546;2024-03-06T09:22:45;6.40;99.90
17986;DHT22;9118;48.122;11.546;2024-03-06T09:25:12;6.60;99.90
17986;DHT22;9118;48.122;11.546;2024-03-06T09:27:40;6.60;99.90
17986;DHT22;9118;48.122;11.546;2024-03-06T09:30:07;6.50;99.90
17986;DHT22;9118;48.122;11.546;2024-03-06T09:32:37;6.50;99.90
17986;DHT22;9118;48.122;11.546;2024-03-06T09:35:04;6.60;99.90
17986;DHT22;9118;48.122;11.546;2024-03-06T09:37:31;6.70;99.90
17986;DHT22;9118;48.122;11.546;2024-03-06T09:39:58;6.80;99.90
17986;DHT22;9118;48.122;11.546;2024-03-06T09:42:25;6.90;99.90
17986;DHT22;9118;48.122;11.546;2024-03-06T09:44:52;6.80;99.90
17986;DHT22;9118;48.122;11.546;2024-03-06T09:47:19;6.80;99.90
17986;DHT22;9118;48.122;11.546;2024-03-06T09:49:49;6.90;99.90
17986;DHT22;9118;48.122;11.546;2024-03-06T09:52:16;6.90;99.90
17986;DHT22;9118;48.122;11.546;2024-03-06T09:54:44;6.90;99.90
17986;DHT22;9118;48.122;11.546;2024-03-06T09:57:11;7.10;99.90
17986;DHT22;9118;48.122;11.546;2024-03-06T09:59:40;7.00;99.90
17986;DHT22;9118;48.122;11.546;2024-03-06T10:02:11;6.90;99.90
17986;DHT22;9118;48.122;11.546;2024-03-06T10:04:44;7.00;99.90
17986;DHT22;9118;48.122;11.546;2024-03-06T10:07:13;7.10;99.90
17986;DHT22;9118;48.122;11.546;2024-03-06T10:09:40;6.90;99.90
17986;DHT22;9118;48.122;11.546;2024-03-06T10:12:11;6.90;99.90
17986;DHT22;9118;48.122;11.546;2024-03-06T10:14:38;6.90;99.90
17986;DHT22;9118;48.122;11.546;2024-03-06T10:17:05;6.90;99.90
17986;DHT22;9118;48.122;11.546;2024-03-06T10:19:32;7.00;99.90
17986;DHT22;9118;48.122;11.546;2024-03-06T10:21:59;7.10;99.90
17986;DHT22;9118;48.122;11.546;2024-03-06T10:24:28;7.20;99.90
17986;DHT22;9118;48.122;11.546;2024-03-06T10:26:56;6.50;99.90
17986;DHT22;9118;48.122;11.546;2024-03-06T10:29:24;7.20;99.90
17986;DHT22;9118;48.122;11.546;2024-03-06T10:31:53;7.10;99.90
17986;DHT22;9118;48.122;11.546;2024-03-06T10:34:20;7.20;99.90
17986;DHT22;9118;48.122;11.546;2024-03-06T10:36:48;7.10;99.90
17986;DHT22;9118;48.122;11.546;2024-03-06T10:39:19;7.30;99.90
17986;DHT22;9118;48.122;11.546;2024-03-06T10:41:51;7.30;99.90
17986;DHT22;9118;48.122;11.546;2024-03-06T10:44:18;7.30;99.90
17986;DHT22;9118;48.122;11.546;2024-03-06T10:46:47;7.30;99.90
17986;DHT22;9118;48.122;11.546;2024-03-06T10:49:19;7.30;99.90
17986;DHT22;9118;48.122;11.546;2024-03-06T10:51:46;7.40;99.90
17986;DHT22;9118;48.122;11.546;2024-03-06T10:54:15;7.30;99.90
17986;DHT22;9118;48.122;11.546;2024-03-06T10:56:42;7.20;99.90
17986;DHT22;9118;48.122;11.546;2024-03-06T10:59:11;7.30;99.90
17986;DHT22;9118;48.122;11.546;2024-03-06T11:01:39;7.20;99.90
17986;DHT22;9118;48.122;11.546;2024-03-06T11:04:09;7.40;99.90
17986;DHT22;9118;48.122;11.546;2024-03-06T11:06:37;7.30;99.90
17986;DHT22;9118;48.122;11.546;2024-03-06T11:09:04;7.50;99.90
17986;DHT22;9118;48.122;11.546;2024-03-06T11:11:39;7.30;99.90
17986;DHT22;9118;48.122;11.546;2024-03-06T11:14:15;7.50;99.90
17986;DHT22;9118;48.122;11.546;2024-03-06T11:16:55;7.50;99.90
17986;DHT22;9118;48.122;11.546;2024-03-06T11:19:22;7.40;99.90
17986;DHT22;9118;48.122;11.546;2024-03-06T11:21:49;7.10;99.90
17986;DHT22;9118;48.122;11.546;2024-03-06T11:24:17;7.20;99.90
17986;DHT22;9118;48.122;11.546;2024-03-06T11:26:46;7.20;99.90
17986;DHT22;9118;48.122;11.546;2024-03-06T11:29:16;7.20;99.90
17986;DHT22;9118;48.122;11.546;2024-03-06T11:34:29;7.50;99.90
17986;DHT22;9118;48.122;11.546;2024-03-06T11:36:57;7.30;99.90
17986;DHT22;9118;48.122;11.546;2024-03-06T11:39:27;7.20;99.90
17986;DHT22;9118;48.122;11.546;2024-03-06T11:41:54;7.20;99.90
17986;DHT22;9118;48.122;11.546;2024-03-06T11:44:22;7.20;99.90
17986;DHT22;9118;48.122;11.546;2024-03-06T11:46:56;7.20;99.90
17986;DHT22;9118;48.122;11.546;2024-03-06T11:49:24;7.30;99.90
17986;DHT22;9118;48.122;11.546;2024-03-06T11:51:51;7.30;99.90
17986;DHT22;9118;48.122;11.546;2024-03-06T11:54:18;7.40;99.90
17986;DHT22;9118;48.122;11.546;2024-03-06T11:56:49;7.40;99.90
17986;DHT22;9118;48.122;11.546;2024-03-06T11:59:16;7.40;99.90
17986;DHT22;9118;48.122;11.546;2024-03-06T12:01:45;7.50;99.90
17986;DHT22;9118;48.122;11.546;2024-03-06T12:04:11;7.50;99.90
17986;DHT22;9118;48.122;11.546;2024-03-06T12:06:40;7.50;99.90
17986;DHT22;9118;48.122;11.546;2024-03-06T12:09:06;7.60;99.90
17986;DHT22;9118;48.122;11.546;2024-03-06T12:11:37;7.60;99.90
17986;DHT22;9118;48.122;11.546;2024-03-06T12:14:12;7.60;99.90
17986;DHT22;9118;48.122;11.546;2024-03-06T12:16:39;7.50;99.90
17986;DHT22;9118;48.122;11.546;2024-03-06T12:19:09;7.60;99.90
17986;DHT22;9118;48.122;11.546;2024-03-06T12:21:36;7.50;99.90
17986;DHT22;9118;48.122;11.546;2024-03-06T12:24:06;7.50;99.90
17986;DHT22;9118;48.122;11.546;2024-03-06T12:26:33;7.50;99.90
17986;DHT22;9118;48.122;11.546;2024-03-06T12:29:06;7.50;99.90
17986;DHT22;9118;48.122;11.546;2024-03-06T12:31:34;7.60;99.90
17986;DHT22;9118;48.122;11.546;2024-03-06T12:34:01;7.40;99.90
17986;DHT22;9118;48.122;11.546;2024-03-06T12:36:30;7.40;99.90
17986;DHT22;9118;48.122;11.546;2024-03-06T12:41:25;7.40;99.90
17986;DHT22;9118;48.122;11.546;2024-03-06T12:43:53;7.30;99.90
17986;DHT22;9118;48.122;11.546;2024-03-06T12:46:20;7.40;99.90
17986;DHT22;9118;48.122;11.546;2024-03-06T12:48:48;7.50;99.90
17986;DHT22;9118;48.122;11.546;2024-03-06T12:51:14;7.40;99.90
17986;DHT22;9118;48.122;11.546;2024-03-06T12:53:43;7.40;99.90
17986;DHT22;9118;48.122;11.546;2024-03-06T12:56:10;7.40;99.90
17986;DHT22;9118;48.122;11.546;2024-03-06T12:58:36;7.30;99.90
17986;DHT22;9118;48.122;11.546;2024-03-06T13:01:04;7.40;99.90
17986;DHT22;9118;48.122;11.546;2024-03-06T13:03:31;7.50;99.90
17986;DHT22;9118;48.122;11.546;2024-03-06T13:05:59;7.50;99.90
17986;DHT22;9118;48.122;11.546;2024-03-06T13:08:26;7.40;99.90
17986;DHT22;9118;48.122;11.546;2024-03-06T13:10:54;7.50;99.90
17986;DHT22;9118;48.122;11.546;2024-03-06T13:13:21;7.60;99.90
17986;DHT22;9118;48.122;11.546;2024-03-06T13:15:49;7.60;99.90
17986;DHT22;9118;48.122;11.546;2024-03-06T13:18:16;7.90;99.90
17986;DHT22;9118;48.122;11.546;2024-03-06T13:20:43;7.60;99.90
17986;DHT22;9118;48.122;11.546;2024-03-06T13:23:10;7.70;99.90
17986;DHT22;9118;48.122;11.546;2024-03-06T13:25:37;7.40;99.90
17986;DHT22;9118;48.122;11.546;2024-03-06T13:28:05;7.50;99.90
17986;DHT22;9118;48.122;11.546;2024-03-06T13:30:32;7.40;99.90
17986;DHT22;9118;48.122;11.546;2024-03-06T13:32:59;7.50;99.90
17986;DHT22;9118;48.122;11.546;2024-03-06T13:35:25;7.30;99.90
17986;DHT22;9118;48.122;11.546;2024-03-06T13:37:52;7.30;99.90
17986;DHT22;9118;48.122;11.546;2024-03-06T13:40:20;7.50;99.90
17986;DHT22;9118;48.122;11.546;2024-03-06T13:42:47;7.30;99.90
17986;DHT22;9118;48.122;11.546;2024-03-06T13:45:15;7.30;99.90
17986;DHT22;9118;48.122;11.546;2024-03-06T13:47:42;7.40;99.90
17986;DHT22;9118;48.122;11.546;2024-03-06T13:50:10;7.40;99.90
17986;DHT22;9118;48.122;11.546;2024-03-06T13:52:37;7.30;99.90
17986;DHT22;9118;48.122;11.546;2024-03-06T13:55:04;7.40;99.90
17986;DHT22;9118;48.122;11.546;2024-03-06T13:57:31;7.40;99.90
17986;DHT22;9118;48.122;11.546;2024-03-06T13:59:59;7.50;99.90
17986;DHT22;9118;48.122;11.546;2024-03-06T14:02:27;7.50;99.90
17986;DHT22;9118;48.122;11.546;2024-03-06T14:04:54;7.40;99.90
17986;DHT22;9118;48.122;11.546;2024-03-06T14:07:21;7.60;99.90
17986;DHT22;9118;48.122;11.546;2024-03-06T14:09:48;7.60;99.90
17986;DHT22;9118;48.122;11.546;2024-03-06T14:12:15;7.50;99.90
17986;DHT22;9118;48.122;11.546;2024-03-06T14:14:42;7.40;99.90
17986;DHT22;9118;48.122;11.546;2024-03-06T14:17:10;7.30;99.90
17986;DHT22;9118;48.122;11.546;2024-03-06T14:19:39;7.20;99.90
17986;DHT22;9118;48.122;11.546;2024-03-06T14:22:06;7.40;99.90
17986;DHT22;9118;48.122;11.546;2024-03-06T14:24:32;7.40;99.90
17986;DHT22;9118;48.122;11.546;2024-03-06T14:26:59;7.30;99.90
17986;DHT22;9118;48.122;11.546;2024-03-06T14:29:26;7.30;99.90
17986;DHT22;9118;48.122;11.546;2024-03-06T14:31:54;7.40;99.90
17986;DHT22;9118;48.122;11.546;2024-03-06T14:34:21;7.40;99.90
17986;DHT22;9118;48.122;11.546;2024-03-06T14:36:51;7.10;99.90
17986;DHT22;9118;48.122;11.546;2024-03-06T14:39:18;7.20;99.90
17986;DHT22;9118;48.122;11.546;2024-03-06T14:41:47;7.10;99.90
17986;DHT22;9118;48.122;11.546;2024-03-06T14:44:14;7.10;99.90
17986;DHT22;9118;48.122;11.546;2024-03-06T14:46:41;7.20;99.90
17986;DHT22;9118;48.122;11.546;2024-03-06T14:49:08;7.20;99.90
17986;DHT22;9118;48.122;11.546;2024-03-06T14:51:35;7.30;99.90
17986;DHT22;9118;48.122;11.546;2024-03-06T14:54:04;7.50;99.90
17986;DHT22;9118;48.122;11.546;2024-03-06T14:56:31;7.60;99.90
17986;DHT22;9118;48.122;11.546;2024-03-06T14:58:58;7.50;99.90
17986;DHT22;9118;48.122;11.546;2024-03-06T15:01:25;7.60;99.90
17986;DHT22;9118;48.122;11.546;2024-03-06T15:03:52;7.70;99.90
17986;DHT22;9118;48.122;11.546;2024-03-06T15:06:19;7.90;99.90
17986;DHT22;9118;48.122;11.546;2024-03-06T15:08:46;7.80;99.90
17986;DHT22;9118;48.122;11.546;2024-03-06T15:11:14;7.90;99.90
17986;DHT22;9118;48.122;11.546;2024-03-06T15:13:41;7.80;99.90
17986;DHT22;9118;48.122;11.546;2024-03-06T15:16:08;7.80;99.90
17986;DHT22;9118;48.122;11.546;2024-03-06T15:18:35;8.00;99.90
17986;DHT22;9118;48.122;11.546;2024-03-06T15:21:02;7.80;99.90
17986;DHT22;9118;48.122;11.546;2024-03-06T15:23:29;7.90;99.90
17986;DHT22;9118;48.122;11.546;2024-03-06T15:25:58;7.80;99.90
17986;DHT22;9118;48.122;11.546;2024-03-06T15:28:26;7.80;99.90
17986;DHT22;9118;48.122;11.546;2024-03-06T15:30:53;7.70;99.90
17986;DHT22;9118;48.122;11.546;2024-03-06T15:33:22;7.80;99.90
17986;DHT22;9118;48.122;11.546;2024-03-06T15:35:48;7.60;99.90
17986;DHT22;9118;48.122;11.546;2024-03-06T15:38:16;7.60;99.90
17986;DHT22;9118;48.122;11.546;2024-03-06T15:40:42;7.60;99.90
17986;DHT22;9118;48.122;11.546;2024-03-06T15:43:09;7.60;99.90
17986;DHT22;9118;48.122;11.546;2024-03-06T15:45:38;7.60;99.90
17986;DHT22;9118;48.122;11.546;2024-03-06T15:48:05;7.40;99.90
17986;DHT22;9118;48.122;11.546;2024-03-06T15:50:31;7.40;99.90
17986;DHT22;9118;48.122;11.546;2024-03-06T15:52:58;7.50;99.90